createdAt,value
2023-05-10T00:01:53.583Z,87.81
2023-05-10T00:04:21.782Z,88.06
2023-05-10T00:06:50.921Z,86.54
2023-05-10T00:09:18.650Z,88.56
2023-05-10T00:11:46.344Z,87.25
2023-05-10T00:14:14.039Z,89.08
2023-05-10T00:16:41.841Z,86.17
2023-05-10T00:19:09.694Z,85.82
2023-05-10T00:21:37.439Z,89.96
2023-05-10T00:24:07.260Z,90.06
2023-05-10T00:26:35.016Z,91.51
2023-05-10T00:29:02.689Z,92.99
2023-05-10T00:31:30.556Z,90.43
2023-05-10T00:33:58.311Z,88.25
2023-05-10T00:36:26.111Z,91.29
2023-05-10T00:38:53.945Z,92.95
2023-05-10T00:41:23.098Z,89.92
2023-05-10T00:43:50.848Z,93.26
2023-05-10T00:46:18.796Z,91.87
2023-05-10T00:48:46.960Z,91.88
2023-05-10T00:51:15.406Z,92.35
2023-05-10T00:53:43.376Z,91.83
2023-05-10T00:56:11.536Z,91.64
2023-05-10T00:58:41.057Z,90.47
2023-05-10T01:01:10.144Z,90.13
2023-05-10T01:03:38.473Z,90.17
2023-05-10T01:06:06.816Z,91.50
2023-05-10T01:08:34.873Z,90.41
2023-05-10T01:11:03.273Z,91.04
2023-05-10T01:13:35.788Z,88.28
2023-05-10T01:16:05.855Z,87.53
2023-05-10T01:18:37.185Z,89.39
2023-05-10T01:21:16.929Z,90.97
2023-05-10T01:24:07.705Z,92.07
2023-05-10T01:27:22.206Z,90.46
2023-05-10T01:32:41.991Z,94.16
2023-05-10T01:35:15.826Z,88.99
2023-05-10T01:37:47.352Z,87.40
2023-05-10T01:40:21.881Z,92.20
2023-05-10T01:42:53.674Z,89.71
2023-05-10T01:45:29.459Z,90.76
2023-05-10T01:48:07.752Z,90.97
2023-05-10T01:50:38.128Z,91.19
2023-05-10T01:53:08.722Z,90.90
2023-05-10T01:55:41.928Z,94.95
2023-05-10T01:58:12.129Z,91.98
2023-05-10T02:00:44.633Z,91.28
2023-05-10T02:03:16.161Z,91.56
2023-05-10T02:05:46.520Z,92.54
2023-05-10T02:08:16.770Z,94.77
2023-05-10T02:10:46.713Z,93.00
2023-05-10T02:13:17.179Z,93.11
2023-05-10T02:15:45.274Z,93.15
2023-05-10T02:18:16.595Z,92.24
2023-05-10T02:20:45.271Z,90.30
2023-05-10T02:23:13.591Z,92.32
2023-05-10T02:25:43.202Z,91.37
2023-05-10T02:28:13.453Z,93.50
2023-05-10T02:30:41.729Z,90.87
2023-05-10T02:33:10.130Z,89.88
2023-05-10T02:35:40.476Z,92.57
2023-05-10T02:38:09.690Z,93.77
2023-05-10T02:40:38.908Z,90.95
2023-05-10T02:43:08.383Z,90.36
2023-05-10T02:45:39.845Z,91.06
2023-05-10T02:48:08.066Z,89.44
2023-05-10T02:50:37.795Z,90.07
2023-05-10T02:53:13.804Z,90.78
2023-05-10T02:55:43.889Z,90.37
2023-05-10T02:58:11.719Z,88.06
2023-05-10T03:00:39.416Z,88.99
2023-05-10T03:03:07.774Z,89.30
2023-05-10T03:05:35.555Z,88.32
2023-05-10T03:08:05.237Z,87.70
2023-05-10T03:10:40.103Z,88.01
2023-05-10T03:13:13.190Z,86.75
2023-05-10T03:15:51.878Z,90.56
2023-05-10T03:18:24.492Z,87.43
2023-05-10T03:20:58.535Z,90.14
2023-05-10T03:23:30.856Z,89.34
2023-05-10T03:26:01.494Z,90.64
2023-05-10T03:28:29.731Z,90.86
2023-05-10T03:30:58.777Z,92.35
2023-05-10T03:33:26.548Z,92.01
2023-05-10T03:35:54.253Z,89.35
2023-05-10T03:38:22.029Z,91.52
2023-05-10T03:40:49.789Z,93.37
2023-05-10T03:43:18.878Z,90.92
2023-05-10T03:45:46.696Z,90.44
2023-05-10T03:48:14.757Z,91.69
2023-05-10T03:50:42.630Z,90.93
2023-05-10T03:53:10.291Z,96.09
2023-05-10T03:55:37.998Z,94.04
2023-05-10T03:58:05.702Z,93.38
2023-05-10T04:00:35.026Z,92.93
2023-05-10T04:03:02.873Z,94.88
2023-05-10T04:05:31.070Z,95.18
2023-05-10T04:07:58.953Z,94.81
2023-05-10T04:10:26.682Z,94.46
2023-05-10T04:12:54.485Z,92.19
2023-05-10T04:15:22.232Z,90.24
2023-05-10T04:17:52.109Z,88.93
2023-05-10T04:20:20.057Z,89.07
2023-05-10T04:22:47.779Z,90.84
2023-05-10T04:25:15.739Z,90.33
2023-05-10T04:27:43.616Z,91.80
2023-05-10T04:30:12.145Z,90.49
2023-05-10T04:32:39.905Z,89.79
2023-05-10T04:35:11.047Z,90.73
2023-05-10T04:37:38.799Z,89.14
2023-05-10T04:40:07.988Z,88.83
2023-05-10T04:42:35.691Z,90.72
2023-05-10T04:45:03.694Z,88.21
2023-05-10T04:47:31.402Z,89.55
2023-05-10T04:49:59.393Z,88.30
2023-05-10T04:52:28.488Z,89.86
2023-05-10T04:54:56.360Z,87.87
2023-05-10T04:57:24.117Z,90.11
2023-05-10T04:59:51.891Z,90.03
2023-05-10T05:02:19.618Z,88.60
2023-05-10T05:04:47.431Z,89.74
2023-05-10T05:07:15.161Z,89.13
2023-05-10T05:09:44.293Z,86.34
2023-05-10T05:12:15.020Z,86.03
2023-05-10T05:14:43.114Z,87.23
2023-05-10T05:17:10.878Z,88.07
2023-05-10T05:19:38.769Z,88.08
2023-05-10T05:22:08.742Z,89.90
2023-05-10T05:24:38.681Z,89.87
2023-05-10T05:27:08.169Z,88.63
2023-05-10T05:29:36.031Z,91.39
2023-05-10T05:32:04.254Z,92.50
2023-05-10T05:34:32.079Z,93.50
2023-05-10T05:36:59.780Z,91.82
2023-05-10T05:39:27.519Z,90.44
2023-05-10T05:41:55.207Z,93.47
2023-05-10T05:44:24.290Z,91.95
2023-05-10T05:46:52.029Z,93.00
2023-05-10T05:49:19.760Z,92.77
2023-05-10T05:51:47.500Z,91.42
2023-05-10T05:54:15.292Z,93.57
2023-05-10T05:56:43.126Z,88.53
2023-05-10T05:59:10.842Z,92.28
2023-05-10T06:01:39.963Z,92.61
2023-05-10T06:04:07.795Z,91.88
2023-05-10T06:06:35.602Z,94.62
2023-05-10T06:09:03.390Z,97.26
2023-05-10T06:11:32.975Z,93.16
2023-05-10T06:14:00.663Z,97.79
2023-05-10T06:16:28.443Z,96.69
2023-05-10T06:18:57.590Z,97.29
2023-05-10T06:21:25.374Z,98.26
2023-05-10T06:23:53.213Z,95.70
2023-05-10T06:26:21.838Z,93.52
2023-05-10T06:28:49.591Z,94.03
2023-05-10T06:31:17.673Z,92.45
2023-05-10T06:33:45.643Z,97.54
2023-05-10T06:36:15.151Z,95.58
2023-05-10T06:38:42.851Z,98.45
2023-05-10T06:41:10.568Z,96.81
2023-05-10T06:43:40.865Z,93.86
2023-05-10T06:46:08.944Z,92.16
2023-05-10T06:48:36.709Z,91.86
2023-05-10T06:51:04.541Z,92.37
2023-05-10T06:53:33.699Z,91.38
2023-05-10T06:56:01.473Z,94.37
2023-05-10T06:58:29.127Z,92.42
2023-05-10T07:00:56.888Z,95.17
2023-05-10T07:03:24.666Z,94.21
2023-05-10T07:05:52.476Z,91.90
2023-05-10T07:08:20.480Z,92.53
2023-05-10T07:10:49.515Z,90.28
2023-05-10T07:13:17.280Z,91.56
2023-05-10T07:15:45.600Z,89.97
2023-05-10T07:18:13.314Z,91.16
2023-05-10T07:20:41.613Z,90.51
2023-05-10T07:23:09.375Z,92.51
2023-05-10T07:25:37.097Z,92.03
2023-05-10T07:28:06.491Z,89.13
2023-05-10T07:30:34.314Z,90.43
2023-05-10T07:33:02.298Z,89.49
2023-05-10T07:35:30.112Z,88.82
2023-05-10T07:37:58.396Z,89.61
2023-05-10T07:40:26.166Z,88.79
2023-05-10T07:42:53.891Z,92.34
2023-05-10T07:45:23.055Z,93.86
2023-05-10T07:47:50.916Z,93.17
2023-05-10T07:50:18.982Z,89.29
2023-05-10T07:52:46.941Z,90.81
2023-05-10T07:55:14.985Z,91.20
2023-05-10T07:57:43.774Z,90.22
2023-05-10T08:00:15.127Z,92.00
2023-05-10T08:02:44.374Z,89.62
2023-05-10T08:05:12.287Z,89.53
2023-05-10T08:07:40.024Z,90.11
2023-05-10T08:10:09.370Z,87.22
2023-05-10T08:12:37.564Z,94.73
2023-05-10T08:15:06.087Z,100.00
2023-05-10T08:17:33.832Z,100.00
2023-05-10T08:20:03.446Z,100.00
2023-05-10T08:22:31.308Z,100.00
2023-05-10T08:24:59.026Z,98.88
2023-05-10T08:27:26.774Z,95.61
2023-05-10T08:29:54.531Z,95.60
2023-05-10T08:32:22.257Z,91.74
2023-05-10T08:34:49.978Z,93.70
2023-05-10T08:37:19.021Z,92.17
2023-05-10T08:39:48.910Z,89.69
2023-05-10T08:42:21.155Z,90.68
2023-05-10T08:44:50.724Z,90.34
2023-05-10T08:47:20.745Z,91.24
2023-05-10T08:49:49.966Z,88.60
2023-05-10T08:52:20.852Z,88.01
2023-05-10T08:54:49.152Z,85.59
2023-05-10T08:57:17.010Z,84.90
2023-05-10T08:59:45.036Z,83.02
2023-05-10T09:02:17.319Z,84.80
2023-05-10T09:04:46.486Z,84.00
2023-05-10T09:07:14.643Z,81.14
2023-05-10T09:09:43.889Z,80.41
2023-05-10T09:12:12.552Z,81.71
2023-05-10T09:14:41.292Z,80.17
2023-05-10T09:17:09.356Z,82.63
2023-05-10T09:19:37.178Z,81.42
2023-05-10T09:22:04.947Z,81.49
2023-05-10T09:24:32.848Z,83.10
2023-05-10T09:27:03.684Z,80.62
2023-05-10T09:29:41.791Z,84.34
2023-05-10T09:32:09.779Z,85.78
2023-05-10T09:34:40.892Z,84.28
2023-05-10T09:37:09.151Z,86.62
2023-05-10T09:39:38.573Z,87.64
2023-05-10T09:42:09.602Z,86.82
2023-05-10T09:44:39.051Z,88.20
2023-05-10T09:47:06.814Z,87.31
2023-05-10T09:49:34.955Z,88.45
2023-05-10T09:52:04.810Z,88.66
2023-05-10T09:54:33.015Z,88.84
2023-05-10T09:57:01.616Z,88.22
2023-05-10T09:59:31.399Z,86.65
2023-05-10T10:02:00.387Z,87.05
2023-05-10T10:04:28.931Z,88.15
2023-05-10T10:07:04.863Z,87.04
2023-05-10T10:09:33.454Z,90.02
2023-05-10T10:12:01.529Z,93.65
2023-05-10T10:14:31.392Z,91.03
2023-05-10T10:17:08.434Z,90.81
2023-05-10T10:19:38.107Z,88.85
2023-05-10T10:22:06.425Z,88.26
2023-05-10T10:24:34.179Z,83.97
2023-05-10T10:27:11.362Z,85.76
2023-05-10T10:29:46.863Z,85.78
2023-05-10T10:32:30.056Z,85.88
2023-05-10T10:34:58.483Z,83.49
2023-05-10T10:37:42.964Z,84.71
2023-05-10T10:40:25.665Z,92.09
2023-05-10T10:42:54.654Z,90.46
2023-05-10T10:45:25.086Z,91.34
2023-05-10T10:48:21.472Z,94.62
2023-05-10T10:50:49.174Z,98.30
2023-05-10T10:53:17.094Z,97.73
2023-05-10T10:55:49.038Z,94.48
2023-05-10T10:58:32.699Z,93.16
2023-05-10T11:01:16.340Z,96.59
2023-05-10T11:04:18.735Z,96.00
2023-05-10T11:06:46.547Z,92.47
2023-05-10T11:09:15.268Z,91.35
2023-05-10T11:11:55.904Z,91.87
2023-05-10T11:14:24.490Z,88.17
2023-05-10T11:16:53.686Z,87.82
2023-05-10T11:19:21.906Z,88.09
2023-05-10T11:21:50.926Z,87.13
2023-05-10T11:24:21.014Z,88.61
2023-05-10T11:26:52.216Z,90.12
2023-05-10T11:29:20.196Z,92.22
2023-05-10T11:31:49.565Z,91.92
2023-05-10T11:34:27.595Z,99.34
2023-05-10T11:36:56.548Z,99.08
2023-05-10T11:39:28.646Z,98.96
2023-05-10T11:41:56.788Z,100.00
2023-05-10T11:44:24.637Z,97.00
2023-05-10T11:46:52.433Z,98.69
2023-05-10T11:49:20.238Z,100.00
2023-05-10T11:51:49.450Z,100.00
2023-05-10T11:54:17.234Z,100.00
2023-05-10T11:56:45.921Z,100.00
2023-05-10T11:59:16.574Z,100.00
2023-05-10T12:01:44.526Z,100.00
2023-05-10T12:04:12.597Z,100.00
2023-05-10T12:06:43.104Z,100.00
2023-05-10T12:09:12.223Z,96.77
2023-05-10T12:11:43.900Z,93.09
2023-05-10T12:14:12.195Z,93.60
2023-05-10T12:16:40.106Z,88.49
2023-05-10T12:19:08.018Z,85.61
2023-05-10T12:21:35.758Z,93.46
2023-05-10T12:24:05.878Z,95.30
2023-05-10T12:26:35.405Z,95.96
2023-05-10T12:29:17.685Z,98.44
2023-05-10T12:31:52.779Z,96.17
2023-05-10T12:34:27.903Z,95.09
2023-05-10T12:36:55.996Z,95.70
2023-05-10T12:39:23.756Z,95.95
2023-05-10T12:41:53.218Z,96.42
2023-05-10T12:44:20.931Z,97.44
2023-05-10T12:46:48.780Z,100.00
2023-05-10T12:49:16.565Z,100.00
2023-05-10T12:51:44.274Z,100.00
2023-05-10T12:54:11.942Z,100.00
2023-05-10T12:56:39.635Z,100.00
2023-05-10T12:59:08.654Z,100.00
2023-05-10T13:01:36.401Z,100.00
2023-05-10T13:04:04.221Z,100.00
2023-05-10T13:06:32.579Z,100.00
2023-05-10T13:09:00.335Z,100.00
2023-05-10T13:11:28.464Z,100.00
2023-05-10T13:13:56.548Z,100.00
2023-05-10T13:16:25.657Z,100.00
2023-05-10T13:18:53.545Z,100.00
2023-05-10T13:21:21.280Z,100.00
2023-05-10T13:23:48.978Z,100.00
2023-05-10T13:26:16.682Z,99.97
2023-05-10T13:28:44.365Z,100.00
2023-05-10T13:31:12.105Z,99.49
2023-05-10T13:33:41.234Z,99.21
2023-05-10T13:36:09.234Z,100.00
2023-05-10T13:38:37.006Z,100.00
2023-05-10T13:41:05.194Z,100.00
2023-05-10T13:43:32.871Z,100.00
2023-05-10T13:46:00.652Z,100.00
2023-05-10T13:48:28.906Z,100.00
2023-05-10T13:50:58.052Z,100.00
2023-05-10T13:53:25.907Z,100.00
2023-05-10T13:55:53.583Z,100.00
2023-05-10T13:58:21.305Z,99.63
2023-05-10T14:00:49.014Z,100.00
2023-05-10T14:03:16.784Z,100.00
2023-05-10T14:05:45.934Z,100.00
2023-05-10T14:08:15.661Z,100.00
2023-05-10T14:10:43.363Z,100.00
2023-05-10T14:13:11.019Z,100.00
2023-05-10T14:15:38.718Z,100.00
2023-05-10T14:18:06.622Z,100.00
2023-05-10T14:20:34.736Z,100.00
2023-05-10T14:23:02.396Z,100.00
2023-05-10T14:25:31.546Z,100.00
2023-05-10T14:27:59.283Z,100.00
2023-05-10T14:30:26.971Z,100.00
2023-05-10T14:32:55.170Z,100.00
2023-05-10T14:35:23.195Z,100.00
2023-05-10T14:37:51.248Z,100.00
2023-05-10T14:40:19.717Z,91.22
2023-05-10T14:42:48.733Z,97.34
2023-05-10T14:45:16.683Z,92.08
2023-05-10T14:47:44.599Z,95.26
2023-05-10T14:50:21.479Z,92.54
2023-05-10T14:52:59.942Z,92.77
2023-05-10T14:55:27.650Z,91.87
2023-05-10T14:57:57.123Z,92.33
2023-05-10T15:00:24.841Z,94.67
2023-05-10T15:02:53.025Z,93.84
2023-05-10T15:05:21.197Z,90.90
2023-05-10T15:07:49.296Z,94.63
2023-05-10T15:10:17.448Z,96.98
2023-05-10T15:12:45.118Z,97.28
2023-05-10T15:15:14.227Z,95.13
2023-05-10T15:17:41.953Z,97.12
2023-05-10T15:20:10.426Z,93.71
2023-05-10T15:22:39.184Z,92.69
2023-05-10T15:25:07.873Z,90.36
2023-05-10T15:27:35.605Z,90.40
2023-05-10T15:30:03.461Z,84.27
2023-05-10T15:32:32.620Z,91.20
2023-05-10T15:35:00.385Z,89.32
2023-05-10T15:37:28.442Z,90.59
2023-05-10T15:40:03.352Z,87.70
2023-05-10T15:42:31.257Z,89.10
2023-05-10T15:44:58.944Z,86.25
2023-05-10T15:47:27.941Z,89.03
2023-05-10T15:49:56.986Z,87.92
2023-05-10T15:52:24.900Z,87.88
2023-05-10T15:54:52.885Z,88.80
2023-05-10T15:57:20.683Z,95.96
2023-05-10T15:59:48.376Z,95.43
2023-05-10T16:02:17.621Z,97.37
2023-05-10T16:04:45.712Z,100.00
2023-05-10T16:07:14.787Z,100.00
2023-05-10T16:09:42.639Z,100.00
2023-05-10T16:12:10.397Z,100.00
2023-05-10T16:14:38.178Z,100.00
2023-05-10T16:17:06.022Z,100.00
2023-05-10T16:19:33.836Z,100.00
2023-05-10T16:22:01.775Z,100.00
2023-05-10T16:24:31.414Z,100.00
2023-05-10T16:26:59.183Z,100.00
2023-05-10T16:29:26.871Z,100.00
2023-05-10T16:31:55.025Z,100.00
2023-05-10T16:34:24.454Z,100.00
2023-05-10T16:36:52.391Z,100.00
2023-05-10T16:39:20.179Z,100.00
2023-05-10T16:41:49.311Z,100.00
2023-05-10T16:44:18.882Z,100.00
2023-05-10T16:46:48.289Z,100.00
2023-05-10T16:49:16.094Z,100.00
2023-05-10T16:51:44.366Z,100.00
2023-05-10T16:54:12.112Z,100.00
2023-05-10T16:56:39.883Z,100.00
2023-05-10T16:59:09.065Z,100.00
2023-05-10T17:01:36.950Z,100.00
2023-05-10T17:04:05.184Z,100.00
2023-05-10T17:06:33.278Z,100.00
2023-05-10T17:09:01.193Z,100.00
2023-05-10T17:11:29.928Z,100.00
2023-05-10T17:13:57.672Z,100.00
2023-05-10T17:16:26.951Z,100.00
2023-05-10T17:18:54.763Z,100.00
2023-05-10T17:21:22.580Z,100.00
2023-05-10T17:23:50.303Z,100.00
2023-05-10T17:26:18.053Z,100.00
2023-05-10T17:28:45.926Z,100.00
2023-05-10T17:31:13.659Z,100.00
2023-05-10T17:33:42.714Z,100.00
2023-05-10T17:36:10.506Z,100.00
2023-05-10T17:38:38.544Z,100.00
2023-05-10T17:41:06.308Z,100.00
2023-05-10T17:43:34.034Z,100.00
2023-05-10T17:46:01.836Z,100.00
2023-05-10T17:48:29.576Z,100.00
2023-05-10T17:50:58.811Z,100.00
2023-05-10T17:53:26.683Z,100.00
2023-05-10T17:55:57.882Z,100.00
2023-05-10T17:58:25.978Z,100.00
2023-05-10T18:00:54.094Z,100.00
2023-05-10T18:03:22.245Z,100.00
2023-05-10T18:05:50.274Z,100.00
2023-05-10T18:08:22.741Z,100.00
2023-05-10T18:10:50.547Z,100.00
2023-05-10T18:13:18.248Z,100.00
2023-05-10T18:15:46.000Z,100.00
2023-05-10T18:18:13.762Z,100.00
2023-05-10T18:20:41.474Z,100.00
2023-05-10T18:23:09.212Z,100.00
2023-05-10T18:25:38.350Z,100.00
2023-05-10T18:28:07.854Z,100.00
2023-05-10T18:30:35.536Z,100.00
2023-05-10T18:33:03.469Z,100.00
2023-05-10T18:35:31.249Z,100.00
2023-05-10T18:37:59.104Z,100.00
2023-05-10T18:40:28.639Z,100.00
2023-05-10T18:42:58.231Z,100.00
2023-05-10T18:45:26.001Z,100.00
2023-05-10T18:47:53.716Z,100.00
2023-05-10T18:50:21.570Z,100.00
2023-05-10T18:52:49.279Z,100.00
2023-05-10T18:55:17.209Z,100.00
2023-05-10T18:57:45.500Z,100.00
2023-05-10T19:00:15.126Z,100.00
2023-05-10T19:02:42.926Z,100.00
2023-05-10T19:05:11.411Z,100.00
2023-05-10T19:07:40.524Z,100.00
2023-05-10T19:10:09.060Z,100.00
2023-05-10T19:12:37.454Z,100.00
2023-05-10T19:15:06.295Z,100.00
2023-05-10T19:17:36.886Z,100.00
2023-05-10T19:20:06.990Z,100.00
2023-05-10T19:22:45.537Z,100.00
2023-05-10T19:25:24.634Z,100.00
2023-05-10T19:27:52.324Z,100.00
2023-05-10T19:30:20.024Z,100.00
2023-05-10T19:32:49.379Z,100.00
2023-05-10T19:35:17.472Z,100.00
2023-05-10T19:37:47.454Z,100.00
2023-05-10T19:40:17.263Z,100.00
2023-05-10T19:42:45.094Z,100.00
2023-05-10T19:45:15.489Z,100.00
2023-05-10T19:47:44.135Z,100.00
2023-05-10T19:50:13.900Z,100.00
2023-05-10T19:52:41.941Z,100.00
2023-05-10T19:55:10.543Z,100.00
2023-05-10T19:57:38.539Z,100.00
2023-05-10T20:00:08.176Z,100.00
2023-05-10T20:02:35.910Z,100.00
2023-05-10T20:05:03.713Z,100.00
2023-05-10T20:07:32.829Z,100.00
2023-05-10T20:10:00.836Z,100.00
2023-05-10T20:12:28.528Z,100.00
2023-05-10T20:14:56.518Z,100.00
2023-05-10T20:17:24.230Z,100.00
2023-05-10T20:19:51.986Z,100.00
2023-05-10T20:22:19.701Z,100.00
2023-05-10T20:24:48.798Z,100.00
2023-05-10T20:27:16.981Z,100.00
2023-05-10T20:29:44.901Z,100.00
2023-05-10T20:32:12.823Z,100.00
2023-05-10T20:34:40.830Z,100.00
2023-05-10T20:37:08.668Z,100.00
2023-05-10T20:39:36.352Z,100.00
2023-05-10T20:42:05.625Z,100.00
2023-05-10T20:44:33.385Z,100.00
2023-05-10T20:47:01.300Z,100.00
2023-05-10T20:49:29.453Z,100.00
2023-05-10T20:51:57.326Z,100.00
2023-05-10T20:54:25.286Z,100.00
2023-05-10T20:56:53.018Z,100.00
2023-05-10T20:59:22.246Z,100.00
2023-05-10T21:01:50.097Z,100.00
2023-05-10T21:04:17.866Z,100.00
2023-05-10T21:06:46.825Z,100.00
2023-05-10T21:09:14.722Z,100.00
2023-05-10T21:11:42.505Z,100.00
2023-05-10T21:14:10.508Z,100.00
2023-05-10T21:16:40.029Z,100.00
2023-05-10T21:19:09.295Z,100.00
2023-05-10T21:21:37.115Z,100.00
2023-05-10T21:24:05.523Z,100.00
2023-05-10T21:26:33.196Z,100.00
2023-05-10T21:29:00.879Z,100.00
2023-05-10T21:31:28.966Z,100.00
2023-05-10T21:33:58.005Z,100.00
2023-05-10T21:36:26.907Z,100.00
2023-05-10T21:38:54.775Z,100.00
2023-05-10T21:41:22.742Z,100.00
2023-05-10T21:43:50.452Z,100.00
2023-05-10T21:46:18.269Z,100.00
2023-05-10T21:48:46.148Z,100.00
2023-05-10T21:51:15.699Z,100.00
2023-05-10T21:53:43.397Z,100.00
2023-05-10T21:56:11.591Z,100.00
2023-05-10T21:58:39.351Z,100.00
2023-05-10T22:01:07.153Z,100.00
2023-05-10T22:03:34.927Z,100.00
2023-05-10T22:06:02.745Z,100.00
2023-05-10T22:08:31.825Z,100.00
2023-05-10T22:10:59.511Z,100.00
2023-05-10T22:13:27.202Z,100.00
2023-05-10T22:15:54.947Z,100.00
2023-05-10T22:18:22.675Z,100.00
2023-05-10T22:20:50.439Z,100.00
2023-05-10T22:23:18.203Z,100.00
2023-05-10T22:25:47.475Z,100.00
2023-05-10T22:28:15.209Z,100.00
2023-05-10T22:30:43.218Z,100.00
2023-05-10T22:33:11.007Z,100.00
2023-05-10T22:35:38.781Z,100.00
2023-05-10T22:38:06.526Z,100.00
2023-05-10T22:40:34.266Z,100.00
2023-05-10T22:43:03.454Z,100.00
2023-05-10T22:45:31.147Z,100.00
2023-05-10T22:47:58.846Z,100.00
2023-05-10T22:50:26.778Z,100.00
2023-05-10T22:52:54.497Z,100.00
2023-05-10T22:55:22.161Z,100.00
2023-05-10T22:57:50.059Z,100.00
2023-05-10T23:00:19.686Z,100.00
2023-05-10T23:02:47.836Z,100.00
2023-05-10T23:05:15.926Z,100.00
2023-05-10T23:07:43.793Z,100.00
2023-05-10T23:10:12.187Z,100.00
2023-05-10T23:12:39.884Z,100.00
2023-05-10T23:15:08.505Z,100.00
2023-05-10T23:17:37.589Z,100.00
2023-05-10T23:20:05.932Z,100.00
2023-05-10T23:22:33.614Z,100.00
2023-05-10T23:25:01.348Z,100.00
2023-05-10T23:27:29.995Z,100.00
2023-05-10T23:29:57.707Z,100.00
2023-05-10T23:32:25.630Z,100.00
2023-05-10T23:34:54.896Z,100.00
2023-05-10T23:37:22.620Z,100.00
2023-05-10T23:39:50.388Z,100.00
2023-05-10T23:42:18.074Z,100.00
2023-05-10T23:44:46.747Z,100.00
2023-05-10T23:47:14.536Z,100.00
2023-05-10T23:49:42.961Z,100.00
2023-05-10T23:52:12.064Z,100.00
2023-05-10T23:54:39.970Z,100.00
2023-05-10T23:57:07.786Z,100.00
2023-05-10T23:59:35.537Z,100.00
